Time;durP1;ratioP1;P1;durP2;ratioP2;P2;SDS_P1;SDS_P2;PMS_P1;PMS_P2;Temp;Humidity;BMP_temperature;BMP_pressure;BME280_temperature;BME280_humidity;BME280_pressure;Samples;Min_cycle;Max_cycle;Signal;HPM_P1;HPM_P2
2023/09/07 00:00:35;;;;;;;26.60;15.13;;;;;;;16.69;100.00;101748.91;6211056;23;20004;-81
2023/09/07 00:03:00;;;;;;;23.33;13.70;;;;;;;16.66;100.00;101749.16;6212818;23;20016;-81
2023/09/07 00:05:26;;;;;;;25.55;14.15;;;;;;;16.64;100.00;101753.84;6213250;23;20004;-81
2023/09/07 00:07:51;;;;;;;29.67;14.95;;;;;;;16.64;100.00;101747.56;6211142;23;20005;-81
2023/09/07 00:10:17;;;;;;;24.35;14.15;;;;;;;16.64;100.00;101744.84;6212369;23;20030;-81
2023/09/07 00:12:43;;;;;;;25.27;13.05;;;;;;;16.62;100.00;101747.69;6210731;23;20060;-80
2023/09/07 00:15:10;;;;;;;24.60;13.80;;;;;;;16.59;100.00;101737.97;6212122;23;20000;-80
2023/09/07 00:17:36;;;;;;;25.38;14.65;;;;;;;16.58;100.00;101749.78;6211076;23;20090;-81
2023/09/07 00:20:09;;;;;;;26.52;15.82;;;;;;;16.56;100.00;101746.38;6212504;23;20090;-80
2023/09/07 00:22:34;;;;;;;27.67;15.60;;;;;;;16.53;100.00;101746.63;6210576;23;20027;-81
2023/09/07 00:25:00;;;;;;;27.83;15.30;;;;;;;16.52;100.00;101744.03;6212536;23;19996;-81
2023/09/07 00:27:25;;;;;;;23.85;14.70;;;;;;;16.49;100.00;101745.16;6211759;23;20031;-80
2023/09/07 00:29:51;;;;;;;24.70;14.45;;;;;;;16.47;100.00;101743.56;6213062;23;20008;-81
2023/09/07 00:32:16;;;;;;;24.70;14.73;;;;;;;16.42;100.00;101739.38;6228612;23;20028;-84
2023/09/07 00:34:41;;;;;;;24.33;14.15;;;;;;;16.41;100.00;101723.22;6241296;23;20015;-84
2023/09/07 00:37:07;;;;;;;26.10;14.60;;;;;;;16.42;100.00;101727.66;6240748;23;20053;-84
2023/09/07 00:39:32;;;;;;;24.88;14.82;;;;;;;16.40;100.00;101726.94;6240337;23;20009;-84
2023/09/07 00:41:57;;;;;;;25.60;14.73;;;;;;;16.38;100.00;101729.78;6240714;23;20058;-84
2023/09/07 00:44:22;;;;;;;24.80;14.73;;;;;;;16.36;100.00;101729.03;6240600;23;19988;-84
2023/09/07 00:46:48;;;;;;;27.77;15.57;;;;;;;16.36;100.00;101730.91;6240271;23;19997;-84
2023/09/07 00:49:14;;;;;;;25.90;14.70;;;;;;;16.33;100.00;101726.59;6239842;23;20008;-84
2023/09/07 00:51:40;;;;;;;24.88;15.60;;;;;;;16.32;100.00;101738.41;6240899;23;20004;-84
2023/09/07 00:54:05;;;;;;;27.92;17.40;;;;;;;16.33;100.00;101732.00;6239177;23;20073;-84
2023/09/07 00:56:31;;;;;;;28.27;16.25;;;;;;;16.31;100.00;101736.72;6240309;23;20008;-84
2023/09/07 00:58:59;;;;;;;30.83;16.27;;;;;;;16.31;100.00;101742.16;6240883;23;20013;-84
2023/09/07 01:01:25;;;;;;;25.38;16.23;;;;;;;16.29;100.00;101737.81;6239846;23;20019;-85
2023/09/07 01:03:51;;;;;;;27.08;17.33;;;;;;;16.28;100.00;101736.94;6241206;23;20011;-84
2023/09/07 01:06:22;;;;;;;27.30;16.98;;;;;;;16.25;100.00;101738.09;6240786;23;20012;-84
2023/09/07 01:08:54;;;;;;;26.92;16.90;;;;;;;16.21;100.00;101736.63;6240828;23;20020;-85
2023/09/07 01:11:23;;;;;;;28.00;17.88;;;;;;;16.17;100.00;101731.56;6240852;23;20030;-84
2023/09/07 01:13:50;;;;;;;27.03;17.03;;;;;;;16.13;100.00;101735.53;6239497;23;20016;-84
2023/09/07 01:16:15;;;;;;;27.08;16.65;;;;;;;16.08;100.00;101728.63;6240355;23;20228;-84
2023/09/07 01:18:41;;;;;;;27.70;17.00;;;;;;;16.06;100.00;101730.63;6240295;23;20004;-84
2023/09/07 01:21:08;;;;;;;28.20;17.13;;;;;;;16.04;100.00;101735.28;6240824;23;20008;-84
2023/09/07 01:23:36;;;;;;;25.98;16.95;;;;;;;16.02;100.00;101731.84;6226544;23;20009;-86
2023/09/07 01:26:04;;;;;;;26.85;16.15;;;;;;;16.03;100.00;101730.00;6185517;23;20017;-86
2023/09/07 01:28:29;;;;;;;27.70;17.23;;;;;;;15.99;100.00;101726.69;6188919;23;20005;-86
2023/09/07 01:30:54;;;;;;;27.58;17.25;;;;;;;15.98;100.00;101719.53;6193340;23;20000;-86
2023/09/07 01:33:20;;;;;;;27.80;17.45;;;;;;;15.93;100.00;101727.19;6188188;23;20001;-86
2023/09/07 01:35:46;;;;;;;26.38;16.67;;;;;;;15.90;100.00;101724.72;6190950;23;19997;-86
2023/09/07 01:38:11;;;;;;;26.60;16.50;;;;;;;15.88;100.00;101715.84;6189971;23;20032;-86
2023/09/07 01:40:37;;;;;;;27.50;16.70;;;;;;;15.88;100.00;101721.28;6184808;23;20092;-86
2023/09/07 01:43:02;;;;;;;24.70;16.17;;;;;;;15.86;100.00;101724.13;6185197;23;20464;-86
2023/09/07 01:45:27;;;;;;;25.13;16.83;;;;;;;15.88;100.00;101718.56;6188599;23;20009;-86
2023/09/07 01:47:53;;;;;;;27.13;16.67;;;;;;;15.84;100.00;101714.38;6178871;23;20004;-85
2023/09/07 01:50:18;;;;;;;26.08;16.33;;;;;;;15.81;100.00;101710.09;6180705;23;20032;-85
2023/09/07 01:52:48;;;;;;;27.40;16.58;;;;;;;15.78;100.00;101710.31;6180090;23;20028;-84
2023/09/07 01:55:14;;;;;;;26.33;16.98;;;;;;;15.78;100.00;101706.72;6182292;23;20498;-84
2023/09/07 01:57:39;;;;;;;24.50;15.82;;;;;;;15.76;100.00;101714.13;6181697;23;20088;-80
2023/09/07 02:00:05;;;;;;;25.67;16.58;;;;;;;15.76;100.00;101716.84;6182413;23;20016;-81
2023/09/07 02:02:31;;;;;;;25.52;16.23;;;;;;;15.73;100.00;101717.94;6180216;23;20001;-81
2023/09/07 02:04:56;;;;;;;25.88;15.98;;;;;;;15.72;100.00;101724.34;6180245;23;20031;-80
2023/09/07 02:07:21;;;;;;;29.80;17.02;;;;;;;15.68;100.00;101715.63;6179922;23;20545;-80
2023/09/07 02:09:47;;;;;;;25.35;15.30;;;;;;;15.66;100.00;101714.00;6180058;23;20457;-79
2023/09/07 02:12:12;;;;;;;26.52;16.40;;;;;;;15.66;100.00;101712.16;6180263;23;20099;-80
2023/09/07 02:14:37;;;;;;;26.95;15.60;;;;;;;15.62;100.00;101712.53;6182012;23;20005;-80
2023/09/07 02:17:03;;;;;;;26.20;16.10;;;;;;;15.59;100.00;101708.22;6181479;23;20267;-82
2023/09/07 02:19:28;;;;;;;24.95;15.52;;;;;;;15.59;100.00;101716.34;6180291;23;20008;-79
2023/09/07 02:21:54;;;;;;;25.67;15.95;;;;;;;15.57;100.00;101704.78;6181772;23;20043;-80
2023/09/07 02:24:19;;;;;;;26.02;16.33;;;;;;;15.55;100.00;101706.75;6164837;23;20461;-81
2023/09/07 02:26:45;;;;;;;27.55;16.77;;;;;;;15.52;100.00;101702.44;6149639;23;20020;-79
2023/09/07 02:29:13;;;;;;;28.10;17.05;;;;;;;15.52;100.00;101712.41;6151870;23;20028;-81
2023/09/07 02:31:42;;;;;;;27.27;17.67;;;;;;;15.49;100.00;101708.13;6151663;23;20584;-80
2023/09/07 02:34:07;;;;;;;25.35;16.67;;;;;;;15.49;100.00;101710.81;6151898;23;20012;-79
2023/09/07 02:36:35;;;;;;;28.52;17.95;;;;;;;15.49;100.00;101709.94;6151200;23;20009;-80
2023/09/07 02:39:01;;;;;;;28.98;18.30;;;;;;;15.49;100.00;101712.66;6149618;23;20101;-82
2023/09/07 02:41:26;;;;;;;26.33;16.52;;;;;;;15.47;100.00;101714.63;6149330;23;20009;-80
2023/09/07 02:43:52;;;;;;;25.75;17.02;;;;;;;15.46;100.00;101718.31;6151499;23;20031;-80
2023/09/07 02:46:17;;;;;;;29.90;16.73;;;;;;;15.44;100.00;101712.19;6151385;23;20005;-80
2023/09/07 02:48:42;;;;;;;25.58;16.50;;;;;;;15.40;100.00;101711.53;6151524;23;20036;-80
2023/09/07 02:51:08;;;;;;;26.73;17.08;;;;;;;15.38;100.00;101702.69;6150701;23;20048;-80
2023/09/07 02:53:33;;;;;;;27.00;16.73;;;;;;;15.36;100.00;101710.94;6149935;23;20013;-80
2023/09/07 02:55:58;;;;;;;29.17;16.67;;;;;;;15.32;100.00;101704.03;6149867;23;20487;-80
2023/09/07 02:58:24;;;;;;;26.17;16.67;;;;;;;15.31;100.00;101699.59;6151068;23;20335;-80
2023/09/07 03:00:50;;;;;;;29.75;18.13;;;;;;;15.29;100.00;101696.16;6150872;23;20052;-79
2023/09/07 03:03:15;;;;;;;25.67;17.50;;;;;;;15.28;100.00;101699.00;6151821;23;20060;-80
2023/09/07 03:05:42;;;;;;;27.48;16.45;;;;;;;15.27;100.00;101691.84;6151245;23;20005;-79
2023/09/07 03:08:08;;;;;;;27.95;17.40;;;;;;;15.26;100.00;101699.13;6158719;23;20032;-83
2023/09/07 03:10:35;;;;;;;28.45;17.50;;;;;;;15.25;100.00;101705.50;6159924;23;20005;-83
2023/09/07 03:13:00;;;;;;;27.83;17.27;;;;;;;15.25;100.00;101705.50;6160283;23;20408;-83
2023/09/07 03:15:27;;;;;;;26.58;16.33;;;;;;;15.27;100.00;101710.81;6158562;23;20056;-83
2023/09/07 03:17:52;;;;;;;27.40;17.42;;;;;;;15.25;100.00;101712.78;6158861;23;20016;-83
2023/09/07 03:20:19;;;;;;;27.73;15.90;;;;;;;15.25;100.00;101712.78;6160966;23;20358;-83
2023/09/07 03:22:44;;;;;;;26.00;16.48;;;;;;;15.23;100.00;101704.78;6162843;23;20536;-83
2023/09/07 03:25:10;;;;;;;26.30;16.98;;;;;;;15.23;100.00;101710.19;6160742;23;20044;-83
2023/09/07 03:27:39;;;;;;;24.98;15.38;;;;;;;15.23;100.00;101709.31;6163480;23;20001;-83
2023/09/07 03:30:05;;;;;;;25.02;16.73;;;;;;;15.23;100.00;101699.38;6160929;23;20002;-83
2023/09/07 03:32:32;;;;;;;27.13;16.38;;;;;;;15.25;100.00;101699.25;6163629;23;20002;-83
2023/09/07 03:35:03;;;;;;;28.30;15.45;;;;;;;15.28;100.00;101704.41;6163589;23;20073;-84
2023/09/07 03:37:28;;;;;;;27.33;16.95;;;;;;;15.28;100.00;101716.09;6162854;23;20137;-83
2023/09/07 03:39:55;;;;;;;28.70;16.80;;;;;;;15.30;100.00;101703.31;6160982;23;20005;-83
2023/09/07 03:42:20;;;;;;;26.88;16.80;;;;;;;15.29;100.00;101709.72;6162526;23;20125;-83
2023/09/07 03:44:45;;;;;;;25.92;16.25;;;;;;;15.30;100.00;101718.69;6161019;23;20016;-84
2023/09/07 03:47:13;;;;;;;26.30;15.40;;;;;;;15.30;100.00;101724.09;6160540;23;20071;-83
2023/09/07 03:49:38;;;;;;;28.15;17.05;;;;;;;15.28;100.00;101707.97;6163590;23;20049;-84
2023/09/07 03:52:04;;;;;;;28.48;15.65;;;;;;;15.26;100.00;101706.41;6163499;23;19998;-83
2023/09/07 03:54:31;;;;;;;27.88;15.23;;;;;;;15.27;100.00;101710.81;6161462;23;20005;-83
2023/09/07 03:56:56;;;;;;;26.38;15.70;;;;;;;15.24;100.00;101711.91;6159766;23;20009;-84
2023/09/07 03:59:22;;;;;;;26.55;15.25;;;;;;;15.23;100.00;101717.44;6159323;23;20009;-83
2023/09/07 04:01:47;;;;;;;26.52;16.50;;;;;;;15.20;100.00;101724.00;6160013;23;20348;-84
2023/09/07 04:04:12;;;;;;;27.25;14.45;;;;;;;15.17;100.00;101719.66;6158702;23;20452;-84
2023/09/07 04:06:38;;;;;;;25.38;15.80;;;;;;;15.16;100.00;101717.09;6162345;23;20370;-84
2023/09/07 04:09:03;;;;;;;27.20;16.08;;;;;;;15.12;100.00;101723.72;6161544;23;20005;-84
2023/09/07 04:11:29;;;;;;;26.83;16.30;;;;;;;15.09;100.00;101707.72;6162545;23;20085;-84
2023/09/07 04:13:54;;;;;;;26.33;15.18;;;;;;;15.07;100.00;101707.84;6161628;23;20008;-84
2023/09/07 04:16:23;;;;;;;23.83;14.10;;;;;;;15.05;100.00;101711.66;6161058;23;19998;-83
2023/09/07 04:18:48;;;;;;;29.02;14.82;;;;;;;15.04;100.00;101713.50;6154214;23;20006;-86
2023/09/07 04:21:13;;;;;;;23.73;13.70;;;;;;;15.00;100.00;101712.00;6156192;23;20424;-87
2023/09/07 04:23:40;;;;;;;27.73;15.80;;;;;;;14.98;100.00;101716.69;6157415;23;20048;-88
2023/09/07 04:26:10;;;;;;;28.83;16.13;;;;;;;14.94;100.00;101720.63;6157059;23;20016;-88
2023/09/07 04:28:35;;;;;;;25.55;14.35;;;;;;;14.90;100.00;101717.28;6149495;23;20292;-81
2023/09/07 04:31:02;;;;;;;27.23;15.70;;;;;;;14.87;100.00;101717.50;6148361;23;20006;-81
2023/09/07 04:33:30;;;;;;;27.50;15.23;;;;;;;14.83;100.00;101725.03;6148526;23;20005;-81
2023/09/07 04:35:56;;;;;;;28.63;15.10;;;;;;;14.81;100.00;101731.53;6148888;23;20314;-80
2023/09/07 04:38:21;;;;;;;25.02;15.00;;;;;;;14.80;100.00;101727.09;6148368;23;20027;-80
2023/09/07 04:40:46;;;;;;;28.38;16.42;;;;;;;14.80;100.00;101727.09;6150015;23;20009;-81
2023/09/07 04:43:15;;;;;;;28.05;16.80;;;;;;;14.77;100.00;101717.34;6147777;23;20009;-79
2023/09/07 04:45:46;;;;;;;26.38;16.27;;;;;;;14.75;100.00;101719.31;6147737;23;20001;-80
2023/09/07 04:48:12;;;;;;;28.05;15.93;;;;;;;14.76;100.00;101720.19;6150416;23;20363;-80
2023/09/07 04:50:37;;;;;;;26.15;16.30;;;;;;;14.72;100.00;101719.56;6150729;23;20043;-82
2023/09/07 04:53:03;;;;;;;24.73;14.43;;;;;;;14.70;100.00;101718.84;6150648;23;20059;-79
2023/09/07 04:55:28;;;;;;;26.65;15.75;;;;;;;14.65;100.00;101727.28;6150969;23;20384;-80
2023/09/07 04:57:53;;;;;;;23.92;14.65;;;;;;;14.67;100.00;101713.63;6150589;23;20072;-81
2023/09/07 05:00:19;;;;;;;27.80;15.80;;;;;;;14.64;100.00;101717.47;6150253;23;20025;-81
2023/09/07 05:02:45;;;;;;;24.60;15.00;;;;;;;14.62;100.00;101719.41;6149542;23;20037;-80
2023/09/07 05:05:11;;;;;;;25.85;14.80;;;;;;;14.63;100.00;101725.69;6148322;23;20005;-81
2023/09/07 05:07:36;;;;;;;25.73;14.82;;;;;;;14.63;100.00;101728.41;6150637;23;20017;-80
2023/09/07 05:10:02;;;;;;;25.85;14.82;;;;;;;14.64;100.00;101732.81;6148849;23;20009;-80
2023/09/07 05:12:28;;;;;;;25.48;15.20;;;;;;;14.65;100.00;101734.53;6148601;23;20037;-83
2023/09/07 05:14:53;;;;;;;26.05;15.60;;;;;;;14.63;100.00;101737.38;6148203;23;20005;-80
2023/09/07 05:17:18;;;;;;;31.50;16.55;;;;;;;14.64;100.00;101733.69;6148087;23;20037;-80
2023/09/07 05:19:44;;;;;;;29.40;16.25;;;;;;;14.63;100.00;101737.38;6146797;23;20450;-81
2023/09/07 05:22:10;;;;;;;27.25;16.27;;;;;;;14.63;100.00;101740.06;6147514;23;20001;-78
2023/09/07 05:24:38;;;;;;;26.70;15.93;;;;;;;14.65;100.00;101739.97;6185637;23;20309;-77
2023/09/07 05:27:03;;;;;;;25.15;15.32;;;;;;;14.66;100.00;101744.41;6209566;23;20009;-77
2023/09/07 05:29:29;;;;;;;25.27;14.98;;;;;;;14.65;100.00;101738.09;6208923;23;20437;-76
2023/09/07 05:31:54;;;;;;;25.10;13.95;;;;;;;14.63;100.00;101742.78;6182480;23;20004;-76
2023/09/07 05:34:19;;;;;;;26.30;15.77;;;;;;;14.63;100.00;101742.78;6183189;23;20130;-76
2023/09/07 05:36:44;;;;;;;25.67;14.38;;;;;;;14.67;100.00;101746.97;6210021;23;20004;-76
2023/09/07 05:39:10;;;;;;;26.95;15.32;;;;;;;14.72;100.00;101746.63;6182150;23;20005;-76
2023/09/07 05:41:35;;;;;;;25.90;14.30;;;;;;;14.75;100.00;101743.69;6209367;23;20441;-76
2023/09/07 05:44:00;;;;;;;26.20;14.70;;;;;;;14.79;100.00;101744.31;6209001;23;20004;-76
2023/09/07 05:46:26;;;;;;;25.95;16.38;;;;;;;14.83;100.00;101746.69;6209274;23;20043;-76
2023/09/07 05:48:51;;;;;;;27.00;16.08;;;;;;;14.87;100.00;101750.00;6182623;23;20469;-76
2023/09/07 05:51:16;;;;;;;26.77;15.02;;;;;;;14.90;100.00;101744.34;6208983;23;20039;-76
2023/09/07 05:53:42;;;;;;;29.15;15.57;;;;;;;14.93;100.00;101754.91;6182617;23;20015;-76
2023/09/07 05:56:07;;;;;;;27.13;16.02;;;;;;;14.96;100.00;101749.25;6181668;23;20054;-76
2023/09/07 05:58:33;;;;;;;25.63;14.82;;;;;;;15.00;100.00;101753.47;6180386;23;20298;-77
2023/09/07 06:00:59;;;;;;;26.67;14.75;;;;;;;15.05;100.00;101753.09;6181073;23;20361;-76
2023/09/07 06:03:25;;;;;;;26.90;14.85;;;;;;;15.10;100.00;101750.06;6181351;23;20110;-76
2023/09/07 06:05:50;;;;;;;26.75;14.55;;;;;;;15.14;100.00;101760.53;6209555;23;20395;-76
2023/09/07 06:08:15;;;;;;;26.10;14.48;;;;;;;15.18;100.00;101758.44;6182533;23;20477;-77
2023/09/07 06:10:41;;;;;;;25.88;14.82;;;;;;;15.26;100.00;101766.81;6208842;23;20449;-76
2023/09/07 06:13:06;;;;;;;25.88;14.13;;;;;;;15.33;100.00;101767.19;6181546;23;20009;-76
2023/09/07 06:15:32;;;;;;;25.77;13.73;;;;;;;15.40;100.00;101765.72;6209900;23;20008;-76
2023/09/07 06:17:57;;;;;;;23.67;11.68;;;;;;;15.48;100.00;101770.56;6208199;23;20035;-76
2023/09/07 06:20:23;;;;;;;25.48;13.18;;;;;;;15.58;100.00;101771.53;6209909;23;20000;-75
2023/09/07 06:22:49;;;;;;;24.70;12.32;;;;;;;15.64;100.00;101778.31;6209119;23;20059;-75
2023/09/07 06:25:14;;;;;;;26.63;14.02;;;;;;;15.72;100.00;101767.72;6209715;23;20012;-76
2023/09/07 06:27:39;;;;;;;23.98;13.63;;;;;;;15.78;100.00;101769.94;6209417;23;20026;-76
2023/09/07 06:30:07;;;;;;;25.35;13.10;;;;;;;15.84;100.00;101769.47;6209655;23;20306;-77
2023/09/07 06:32:35;;;;;;;25.70;13.45;;;;;;;15.90;100.00;101770.78;6208701;23;20037;-82
2023/09/07 06:35:00;;;;;;;23.65;13.15;;;;;;;15.97;100.00;101769.31;6209678;23;20004;-84
2023/09/07 06:37:25;;;;;;;24.13;13.88;;;;;;;16.02;100.00;101777.94;6212898;23;20014;-82
2023/09/07 06:39:54;;;;;;;20.48;9.05;;;;;;;16.04;100.00;101775.97;6212447;23;20000;-83
2023/09/07 06:42:19;;;;;;;21.70;10.52;;;;;;;16.11;100.00;101773.63;6184421;23;20035;-83
2023/09/07 06:44:45;;;;;;;27.30;12.77;;;;;;;16.17;100.00;101766.84;6210925;23;20005;-84
2023/09/07 06:47:10;;;;;;;25.25;12.70;;;;;;;16.21;100.00;101769.16;6210945;23;20079;-83
2023/09/07 06:49:38;;;;;;;23.60;11.50;;;;;;;16.29;100.00;101775.81;6210762;23;20005;-83
2023/09/07 06:52:03;;;;;;;21.33;10.10;;;;;;;16.34;100.00;101774.44;6184181;23;20103;-84
2023/09/07 06:54:28;;;;;;;22.60;11.02;;;;;;;16.39;100.00;101783.03;6209457;23;20450;-77
2023/09/07 06:56:54;;;;;;;25.13;11.00;;;;;;;16.42;100.00;101777.34;6209789;23;20043;-78
2023/09/07 06:59:19;;;;;;;23.52;10.27;;;;;;;16.47;100.00;101778.81;6209904;23;20004;-77
2023/09/07 07:01:44;;;;;;;21.25;9.45;;;;;;;16.50;100.00;101775.84;6210116;23;20008;-77
2023/09/07 07:04:10;;;;;;;22.30;9.88;;;;;;;16.52;100.00;101782.03;6210365;23;20011;-78
2023/09/07 07:06:35;;;;;;;26.27;12.27;;;;;;;16.68;100.00;101781.59;6209938;23;20005;-78
2023/09/07 07:09:00;;;;;;;21.15;9.63;;;;;;;16.75;100.00;101788.22;6209789;23;20075;-78
2023/09/07 07:11:26;;;;;;;22.10;10.90;;;;;;;16.83;100.00;101787.59;6210118;23;19997;-77
2023/09/07 07:13:51;;;;;;;25.65;12.30;;;;;;;16.90;100.00;101786.94;6210447;23;20011;-78
2023/09/07 07:16:17;;;;;;;21.35;8.73;;;;;;;16.91;100.00;101790.53;6183023;23;20301;-76
2023/09/07 07:18:42;;;;;;;21.38;10.25;;;;;;;16.95;100.00;101789.28;6184957;23;20056;-84
2023/09/07 07:21:08;;;;;;;24.00;11.60;;;;;;;17.04;100.00;101788.50;6185645;23;20040;-83
2023/09/07 07:23:34;;;;;;;23.27;10.98;;;;;;;17.22;100.00;101786.03;6211047;23;20023;-83
2023/09/07 07:26:00;;;;;;;21.30;9.70;;;;;;;17.32;100.00;101786.13;6210179;23;20422;-84
2023/09/07 07:28:25;;;;;;;17.92;7.07;;;;;;;17.35;100.00;101790.38;6184268;23;20004;-84
2023/09/07 07:30:52;;;;;;;22.65;10.77;;;;;;;17.42;100.00;101789.75;6210503;23;20004;-83
2023/09/07 07:33:17;;;;;;;23.55;8.88;;;;;;;17.37;100.00;101783.84;6210895;23;20001;-84
2023/09/07 07:35:43;;;;;;;18.30;7.25;;;;;;;17.38;100.00;101787.41;6210194;23;20015;-82
2023/09/07 07:38:08;;;;;;;20.88;7.18;;;;;;;17.36;100.00;101781.25;6184282;23;20334;-83
2023/09/07 07:40:34;;;;;;;19.55;8.48;;;;;;;17.46;100.00;101783.03;6182888;23;20378;-82
2023/09/07 07:42:59;;;;;;;16.70;6.47;;;;;;;17.43;100.00;101783.28;6184039;23;20108;-83
2023/09/07 07:45:25;;;;;;;19.52;6.63;;;;;;;17.46;100.00;101783.03;6183970;23;20005;-84
2023/09/07 07:47:51;;;;;;;19.42;7.53;;;;;;;17.61;100.00;101785.38;6209635;23;20011;-84
2023/09/07 07:50:17;;;;;;;19.95;8.45;;;;;;;17.77;100.00;101783.03;6211237;23;20011;-80
2023/09/07 07:52:42;;;;;;;20.30;7.45;;;;;;;17.92;100.00;101771.81;6210845;23;20422;-83
2023/09/07 07:55:08;;;;;;;19.92;8.00;;;;;;;18.08;100.00;101782.16;6184198;23;20004;-84
2023/09/07 07:57:33;;;;;;;19.00;6.63;;;;;;;18.08;100.00;101772.16;6183277;23;20437;-82
2023/09/07 07:59:59;;;;;;;19.20;6.95;;;;;;;18.10;100.00;101775.59;6184687;23;20023;-83
2023/09/07 08:02:24;;;;;;;20.83;8.13;;;;;;;18.16;100.00;101772.31;6209765;23;20330;-82
2023/09/07 08:04:50;;;;;;;18.55;7.63;;;;;;;18.25;100.00;101767.88;6184146;23;20016;-81
2023/09/07 08:07:16;;;;;;;18.20;7.38;;;;;;;18.30;100.00;101768.34;6209794;23;20147;-83
2023/09/07 08:09:41;;;;;;;19.15;7.35;;;;;;;18.39;100.00;101772.06;6182818;23;20005;-82
2023/09/07 08:12:07;;;;;;;18.83;6.82;;;;;;;18.48;100.00;101773.94;6209044;23;20012;-79
2023/09/07 08:14:32;;;;;;;21.25;6.75;;;;;;;18.52;100.00;101769.94;6181946;23;20126;-81
2023/09/07 08:16:58;;;;;;;19.88;6.80;;;;;;;18.53;100.00;101770.78;6209476;23;20059;-82
2023/09/07 08:19:24;;;;;;;19.08;7.40;;;;;;;18.59;100.00;101770.22;6208669;23;20335;-79
2023/09/07 08:21:50;;;;;;;20.23;8.20;;;;;;;18.76;100.00;101765.91;6180258;23;20063;-80
2023/09/07 08:24:15;;;;;;;20.48;9.10;;;;;;;18.93;100.00;101760.78;6158893;23;20408;-83
2023/09/07 08:26:41;;;;;;;22.88;8.27;;;;;;;19.02;100.00;101757.19;6148328;23;20112;-83
2023/09/07 08:29:08;;;;;;;18.90;7.70;;;;;;;19.05;100.00;101759.63;6147141;23;20478;-81
2023/09/07 08:31:38;;;;;;;18.83;7.05;;;;;;;19.06;100.00;101755.03;6147709;23;20001;-82
2023/09/07 08:34:05;;;;;;;23.02;8.40;;;;;;;19.23;100.00;101757.00;6148731;23;20331;-85
2023/09/07 08:36:34;;;;;;;21.08;8.60;;;;;;;19.33;99.96;101756.97;6145894;23;20088;-79
2023/09/07 08:39:10;;;;;;;21.60;8.00;;;;;;;19.42;100.00;101752.50;6146610;23;20057;-82
2023/09/07 08:41:44;;;;;;;20.90;8.55;;;;;;;19.50;98.39;101748.03;6147756;23;20016;-81
2023/09/07 08:44:20;;;;;;;20.77;7.78;;;;;;;19.50;100.00;101752.59;6147214;23;20116;-80
2023/09/07 08:46:49;;;;;;;16.35;6.72;;;;;;;19.50;98.99;101752.59;6147796;23;20009;-82
2023/09/07 08:49:19;;;;;;;16.30;6.25;;;;;;;19.49;100.00;101754.47;6149682;23;20088;-82
2023/09/07 08:51:44;;;;;;;17.33;7.22;;;;;;;19.67;98.14;101748.25;6146685;23;20107;-80
2023/09/07 08:54:11;;;;;;;20.75;6.60;;;;;;;19.72;96.91;101746.78;6146279;23;20005;-81
2023/09/07 08:56:37;;;;;;;18.23;6.68;;;;;;;19.76;97.44;101741.88;6147940;23;20017;-80
2023/09/07 08:59:04;;;;;;;16.67;5.97;;;;;;;19.72;97.83;101741.31;6149154;23;20049;-83
2023/09/07 09:01:31;;;;;;;18.15;6.85;;;;;;;19.81;97.54;101736.88;6150123;23;20056;-81
2023/09/07 09:03:57;;;;;;;19.05;6.80;;;;;;;19.83;97.85;101737.56;6150563;23;20076;-80
2023/09/07 09:06:22;;;;;;;14.75;5.75;;;;;;;19.83;97.52;101729.38;6150426;23;20009;-80
2023/09/07 09:08:50;;;;;;;16.95;6.38;;;;;;;20.05;93.81;101739.00;6150420;23;20032;-80
2023/09/07 09:11:20;;;;;;;15.73;5.65;;;;;;;20.12;95.64;101736.53;6147917;23;20128;-81
2023/09/07 09:13:47;;;;;;;16.95;6.05;;;;;;;20.27;92.48;101736.00;6150201;23;20337;-82
2023/09/07 09:16:13;;;;;;;13.30;5.20;;;;;;;20.25;95.39;101737.03;6148702;23;20085;-80
2023/09/07 09:18:39;;;;;;;15.45;5.50;;;;;;;20.21;96.13;101740.22;6150975;23;20084;-80
2023/09/07 09:21:05;;;;;;;16.38;6.18;;;;;;;20.22;94.38;101739.19;6150094;23;20001;-81
2023/09/07 09:23:35;;;;;;;15.75;6.03;;;;;;;20.39;92.62;101737.50;6157230;23;20086;-81
2023/09/07 09:26:05;;;;;;;18.48;5.95;;;;;;;20.42;93.75;101737.19;6183366;23;20127;-82
2023/09/07 09:28:34;;;;;;;15.63;5.68;;;;;;;20.35;95.22;101730.63;6180925;23;20059;-81
2023/09/07 09:31:00;;;;;;;;;;;;;;;20.36;97.82;101733.19;6209150;23;20419;-78
2023/09/07 09:33:27;;;;;;;17.67;6.20;;;;;;;20.47;94.80;101723.06;6208607;23;19912;-80
2023/09/07 09:35:54;;;;;;;15.05;5.78;;;;;;;20.51;93.38;101728.03;6209005;23;20028;-82
2023/09/07 09:38:19;;;;;;;17.33;6.90;;;;;;;20.62;92.01;101732.41;6181873;23;20043;-83
2023/09/07 09:40:45;;;;;;;16.17;5.53;;;;;;;20.72;92.66;101722.31;6181808;23;20012;-80
2023/09/07 09:43:12;;;;;;;16.73;6.65;;;;;;;20.87;88.57;101717.13;6182119;23;20023;-82
2023/09/07 09:45:37;;;;;;;14.80;6.22;;;;;;;20.98;87.18;101726.91;6181715;23;20008;-81
2023/09/07 09:48:07;;;;;;;14.02;5.65;;;;;;;20.95;91.87;101729.97;6207830;23;20425;-80
2023/09/07 09:50:37;;;;;;;17.20;6.78;;;;;;;21.12;86.62;101722.75;6180443;23;20007;-81
2023/09/07 09:53:06;;;;;;;21.00;6.88;;;;;;;21.10;90.20;101725.66;6208485;23;20000;-81
2023/09/07 09:55:32;;;;;;;15.65;6.15;;;;;;;21.11;90.31;101724.66;6208732;23;20036;-80
2023/09/07 09:57:58;;;;;;;14.93;5.82;;;;;;;21.15;89.04;101716.97;6207736;23;20004;-82
2023/09/07 10:00:26;;;;;;;16.83;6.30;;;;;;;21.36;83.72;101724.78;6180951;23;20062;-80
2023/09/07 10:03:07;;;;;;;16.15;6.45;;;;;;;21.58;83.30;101722.53;6207870;23;20004;-81
2023/09/07 10:05:34;;;;;;;14.85;6.03;;;;;;;21.71;84.06;101717.44;6208753;23;20516;-80
2023/09/07 10:08:06;;;;;;;17.20;5.85;;;;;;;21.85;81.68;101717.88;6208791;23;20078;-80
2023/09/07 10:10:37;;;;;;;17.27;6.75;;;;;;;22.03;79.58;101721.31;6183411;23;20089;-81
2023/09/07 10:13:03;;;;;;;17.58;6.63;;;;;;;22.15;79.15;101709.06;6184623;23;20055;-82
2023/09/07 10:15:29;;;;;;;14.25;5.43;;;;;;;22.18;81.00;101710.56;6211050;23;20433;-82
2023/09/07 10:18:32;;;;;;;16.45;6.78;;;;;;;22.24;82.52;101709.94;6184169;23;20103;-81
2023/09/07 10:20:58;;;;;;;13.25;5.68;;;;;;;22.23;83.02;101704.63;6195679;23;20019;-82
2023/09/07 10:23:36;;;;;;;16.10;5.88;;;;;;;22.18;84.41;101713.31;6183015;23;20624;-79
2023/09/07 10:26:09;;;;;;;16.70;5.65;;;;;;;22.18;81.56;101713.31;6210361;23;20221;-81
2023/09/07 10:28:34;;;;;;;15.60;6.47;;;;;;;22.19;79.70;101708.72;6210322;23;20008;-80
2023/09/07 10:31:04;;;;;;;15.55;5.65;;;;;;;22.18;82.77;101707.84;6182400;23;20020;-81
2023/09/07 10:33:39;;;;;;;16.92;6.00;;;;;;;22.24;83.06;101700.84;6210002;23;20054;-81
2023/09/07 10:36:05;;;;;;;14.80;6.00;;;;;;;22.25;79.64;101706.13;6183368;23;20009;-82
2023/09/07 10:38:36;;;;;;;12.73;5.13;;;;;;;22.19;82.60;101695.88;6182911;23;20016;-81
2023/09/07 10:41:04;;;;;;;14.70;5.45;;;;;;;22.17;81.49;101695.19;6183984;23;20008;-79
2023/09/07 10:43:31;;;;;;;14.07;5.43;;;;;;;22.31;78.46;101696.41;6183386;23;20066;-82
2023/09/07 10:45:57;;;;;;;16.08;6.07;;;;;;;22.25;81.91;101689.72;6182633;23;20013;-79
2023/09/07 10:48:29;;;;;;;12.73;5.13;;;;;;;22.22;83.16;101686.47;6183786;23;20378;-76
2023/09/07 10:50:54;;;;;;;15.45;6.00;;;;;;;22.24;81.67;101684.41;6210712;23;20055;-75
2023/09/07 10:53:28;;;;;;;14.65;5.15;;;;;;;22.15;85.74;101680.81;6183165;23;20004;-75
2023/09/07 10:55:56;;;;;;;14.57;5.63;;;;;;;22.17;84.09;101676.88;6183074;23;20083;-75
2023/09/07 10:58:30;;;;;;;14.82;6.15;;;;;;;22.16;85.51;101677.88;6209238;23;20057;-75
2023/09/07 11:00:56;;;;;;;17.52;6.40;;;;;;;22.16;85.34;101674.31;6183604;23;20012;-75
2023/09/07 11:03:22;;;;;;;17.80;6.15;;;;;;;22.28;82.25;101675.69;6183683;23;20001;-76